New York, NY

14:08 EDT le 01 septembre 2015 (GMT -0400)
Murray Hill | | Change Station
CLOSE
Current Station
Stations météorologiques personnelles
Location: New York, NY
Altitude: 98 ft
Stations météo à proximité

Alt. 98 ft 40.75 °N, 73.98 °W | Updated 1 second ago

Partly Cloudy
Partiellement nuageux
83.8 ° F
Paraît 86 ° F
N
0.0
Vent Variable Vent de SSE
Gusts 8.0 mph

Aujourd'hui
Haut(e) -- | Bas -- ° F
--% Risque de précip.
Hier
Haut(e) -- | Bas -- ° F
Precip. -- pouce
6:22 AM 7:28 PM
Lune gibbeuse décroissante, 87% visible
Pression 30.04 pouce
Visibilité 8.0 Miles terrestres
Nuages Peu 4600 ft
indice de chaleur 86 ° F
Point de rosée 66 ° F
Humidité 54%
Précipitations 0.00 pouce
Profondeur de la couche neigeuse Non disponible.
UV 8 sur 12
Pollen 10.00 sur 12
Qualité de l'air Non disponible.
Flu Activity Non disponible.
METAR KNYC 011751Z AUTO VRB03KT 8SM FEW046 31/17 A3007 RMK AO2 SLP171 T03110167 10317 20250 58006 $
Pression 30.04 pouce
Visibilité 8.0 Miles terrestres
Nuages Peu 4600 ft
indice de chaleur 86 ° F
Point de rosée 66 ° F
Humidité 54%
Précipitations 0.00 pouce
Profondeur de la couche neigeuse Non disponible.
UV 8 sur 12
Pollen 10.00 sur 12
Qualité de l'air Non disponible.
Flu Activity Non disponible.
METAR KNYC 011751Z AUTO VRB03KT 8SM FEW046 31/17 A3007 RMK AO2 SLP171 T03110167 10317 20250 58006 $

10-Day Weather Forecast

×

Almanac

Astronomie

Sep. 01, 2015 Lever Coucher
Temps réel
Crépuscule civil
Crépuscule nautique
Crépuscule astronomique
Lune
Durée de lumière visible
Longueur du jour
Tomorrow will be .
, % of the Moon is Illuminated

Extrêmes aujourd'hui

State Highs State Lows

Community

WunderPhotos

Upload Photos

1,851,588 Photos téléchargées !

WunderBlogs® & News

Nearby

Qualité de l'air

  Qualité de l'air Indice de la qualité de l'air Polluant
Not available.

Épaisseur de neige

Station Depth Altitude

Activité sismique

Ville Distance Mag. Time & Date
Minimum magnitude displayed is 2.5.

Températures des eaux côtières

Lieu Température

Stations

Stations météo à proximité

Emplacement de la station Température Refroidissement éolien Point de rosée Humidité Vent Precip. Alt. Mise à jour Type